sensor_id;sensor_type;location;lat;lon;timestamp;P1;durP1;ratioP1;P2;durP2;ratioP2
60675;SDS011;46716;38.014;-7.874;2022-12-18T12:05:12;6.72;;;1.40;;
60675;SDS011;46716;38.014;-7.874;2022-12-18T12:07:21;4.63;;;1.25;;
60675;SDS011;46716;38.014;-7.874;2022-12-18T12:09:39;5.78;;;1.33;;
60675;SDS011;46716;38.014;-7.874;2022-12-18T12:18:38;6.22;;;1.08;;
60675;SDS011;46716;38.014;-7.874;2022-12-18T12:31:05;5.18;;;1.40;;
60675;SDS011;46716;38.014;-7.874;2022-12-18T12:33:29;5.68;;;1.90;;
60675;SDS011;46716;38.014;-7.874;2022-12-18T12:40:15;5.57;;;1.58;;
60675;SDS011;46716;38.014;-7.874;2022-12-18T12:42:31;3.95;;;1.25;;
60675;SDS011;46716;38.014;-7.874;2022-12-18T12:44:57;3.10;;;1.15;;
60675;SDS011;46716;38.014;-7.874;2022-12-18T12:47:11;3.92;;;1.00;;
60675;SDS011;46716;38.014;-7.874;2022-12-18T12:49:20;4.63;;;0.90;;
60675;SDS011;46716;38.014;-7.874;2022-12-18T12:51:27;5.22;;;1.10;;
60675;SDS011;46716;38.014;-7.874;2022-12-18T12:53:35;3.33;;;1.38;;
60675;SDS011;46716;38.014;-7.874;2022-12-18T12:55:38;3.17;;;1.08;;
60675;SDS011;46716;38.014;-7.874;2022-12-18T13:04:38;5.22;;;1.02;;
60675;SDS011;46716;38.014;-7.874;2022-12-18T13:09:05;5.25;;;1.77;;
60675;SDS011;46716;38.014;-7.874;2022-12-18T13:11:12;4.90;;;1.38;;
60675;SDS011;46716;38.014;-7.874;2022-12-18T13:13:54;5.30;;;1.30;;
60675;SDS011;46716;38.014;-7.874;2022-12-18T13:16:06;3.80;;;1.08;;
60675;SDS011;46716;38.014;-7.874;2022-12-18T13:20:12;5.88;;;0.70;;
60675;SDS011;46716;38.014;-7.874;2022-12-18T13:22:23;6.53;;;1.10;;
60675;SDS011;46716;38.014;-7.874;2022-12-18T13:24:26;3.92;;;1.05;;
60675;SDS011;46716;38.014;-7.874;2022-12-18T13:26:31;5.50;;;1.23;;
60675;SDS011;46716;38.014;-7.874;2022-12-18T13:30:46;6.45;;;1.33;;
60675;SDS011;46716;38.014;-7.874;2022-12-18T13:32:48;5.28;;;1.20;;
60675;SDS011;46716;38.014;-7.874;2022-12-18T13:37:41;4.45;;;0.90;;
60675;SDS011;46716;38.014;-7.874;2022-12-18T13:39:44;2.80;;;0.85;;
60675;SDS011;46716;38.014;-7.874;2022-12-18T13:41:49;5.97;;;1.02;;
60675;SDS011;46716;38.014;-7.874;2022-12-18T13:44:43;7.18;;;1.73;;
60675;SDS011;46716;38.014;-7.874;2022-12-18T13:46:42;5.40;;;1.48;;
60675;SDS011;46716;38.014;-7.874;2022-12-18T13:49:05;5.97;;;1.20;;
60675;SDS011;46716;38.014;-7.874;2022-12-18T13:51:21;3.53;;;1.05;;
60675;SDS011;46716;38.014;-7.874;2022-12-18T13:53:27;4.40;;;1.20;;
60675;SDS011;46716;38.014;-7.874;2022-12-18T13:55:37;5.18;;;1.90;;
60675;SDS011;46716;38.014;-7.874;2022-12-18T13:57:38;3.65;;;1.33;;
60675;SDS011;46716;38.014;-7.874;2022-12-18T14:01:45;6.53;;;1.65;;
60675;SDS011;46716;38.014;-7.874;2022-12-18T14:04:08;4.47;;;0.95;;
60675;SDS011;46716;38.014;-7.874;2022-12-18T14:06:12;6.15;;;1.20;;
60675;SDS011;46716;38.014;-7.874;2022-12-18T14:08:14;5.82;;;1.42;;
60675;SDS011;46716;38.014;-7.874;2022-12-18T14:10:16;3.90;;;1.42;;
60675;SDS011;46716;38.014;-7.874;2022-12-18T14:12:36;3.95;;;1.45;;
60675;SDS011;46716;38.014;-7.874;2022-12-18T14:14:56;4.35;;;1.23;;
60675;SDS011;46716;38.014;-7.874;2022-12-18T14:16:57;7.82;;;1.20;;
60675;SDS011;46716;38.014;-7.874;2022-12-18T14:18:59;5.40;;;1.23;;
60675;SDS011;46716;38.014;-7.874;2022-12-18T14:21:01;5.78;;;1.90;;
60675;SDS011;46716;38.014;-7.874;2022-12-18T14:23:03;6.28;;;1.45;;
60675;SDS011;46716;38.014;-7.874;2022-12-18T14:25:06;2.15;;;0.70;;
60675;SDS011;46716;38.014;-7.874;2022-12-18T14:28:14;4.15;;;1.17;;
60675;SDS011;46716;38.014;-7.874;2022-12-18T14:30:26;4.28;;;1.08;;
60675;SDS011;46716;38.014;-7.874;2022-12-18T14:32:28;3.53;;;0.77;;
60675;SDS011;46716;38.014;-7.874;2022-12-18T14:34:29;5.93;;;1.42;;
60675;SDS011;46716;38.014;-7.874;2022-12-18T14:36:30;3.92;;;1.10;;
60675;SDS011;46716;38.014;-7.874;2022-12-18T14:40:35;5.15;;;1.00;;
60675;SDS011;46716;38.014;-7.874;2022-12-18T14:42:37;4.68;;;1.05;;
60675;SDS011;46716;38.014;-7.874;2022-12-18T14:44:38;4.00;;;1.42;;
60675;SDS011;46716;38.014;-7.874;2022-12-18T14:46:39;3.60;;;0.90;;
60675;SDS011;46716;38.014;-7.874;2022-12-18T14:48:42;4.70;;;0.80;;
60675;SDS011;46716;38.014;-7.874;2022-12-18T14:50:58;3.05;;;1.13;;
60675;SDS011;46716;38.014;-7.874;2022-12-18T14:53:04;3.08;;;0.80;;
60675;SDS011;46716;38.014;-7.874;2022-12-18T14:55:17;5.78;;;1.25;;
60675;SDS011;46716;38.014;-7.874;2022-12-18T14:57:23;3.63;;;1.10;;
60675;SDS011;46716;38.014;-7.874;2022-12-18T14:59:29;4.55;;;1.10;;
60675;SDS011;46716;38.014;-7.874;2022-12-18T15:01:38;2.20;;;0.90;;
60675;SDS011;46716;38.014;-7.874;2022-12-18T15:03:46;4.30;;;0.90;;
60675;SDS011;46716;38.014;-7.874;2022-12-18T15:05:47;3.40;;;0.90;;
60675;SDS011;46716;38.014;-7.874;2022-12-18T15:07:50;5.28;;;1.20;;
60675;SDS011;46716;38.014;-7.874;2022-12-18T15:12:22;3.90;;;1.08;;
60675;SDS011;46716;38.014;-7.874;2022-12-18T15:14:33;1.65;;;0.68;;
60675;SDS011;46716;38.014;-7.874;2022-12-18T15:16:38;3.33;;;1.10;;
60675;SDS011;46716;38.014;-7.874;2022-12-18T15:18:41;3.30;;;1.10;;
60675;SDS011;46716;38.014;-7.874;2022-12-18T15:20:49;3.22;;;1.00;;
60675;SDS011;46716;38.014;-7.874;2022-12-18T15:22:52;5.97;;;1.00;;
60675;SDS011;46716;38.014;-7.874;2022-12-18T15:24:54;3.65;;;0.80;;
60675;SDS011;46716;38.014;-7.874;2022-12-18T15:28:57;4.72;;;1.42;;
60675;SDS011;46716;38.014;-7.874;2022-12-18T15:31:04;5.03;;;1.30;;
60675;SDS011;46716;38.014;-7.874;2022-12-18T15:33:22;4.15;;;1.05;;
60675;SDS011;46716;38.014;-7.874;2022-12-18T15:35:25;2.90;;;1.25;;
60675;SDS011;46716;38.014;-7.874;2022-12-18T15:37:25;6.82;;;1.40;;
60675;SDS011;46716;38.014;-7.874;2022-12-18T15:39:26;4.90;;;1.25;;
60675;SDS011;46716;38.014;-7.874;2022-12-18T15:41:27;2.65;;;1.10;;
60675;SDS011;46716;38.014;-7.874;2022-12-18T15:43:28;4.53;;;1.10;;
60675;SDS011;46716;38.014;-7.874;2022-12-18T15:45:35;4.38;;;1.10;;
60675;SDS011;46716;38.014;-7.874;2022-12-18T15:47:36;2.45;;;1.02;;
60675;SDS011;46716;38.014;-7.874;2022-12-18T15:49:38;5.00;;;1.13;;
60675;SDS011;46716;38.014;-7.874;2022-12-18T15:51:39;3.90;;;1.42;;
60675;SDS011;46716;38.014;-7.874;2022-12-18T15:53:40;6.18;;;1.30;;
60675;SDS011;46716;38.014;-7.874;2022-12-18T15:55:42;3.53;;;1.17;;
60675;SDS011;46716;38.014;-7.874;2022-12-18T15:58:01;3.40;;;1.52;;
60675;SDS011;46716;38.014;-7.874;2022-12-18T16:00:02;5.82;;;1.40;;
60675;SDS011;46716;38.014;-7.874;2022-12-18T16:02:07;4.10;;;1.00;;
60675;SDS011;46716;38.014;-7.874;2022-12-18T16:04:15;3.63;;;1.10;;
60675;SDS011;46716;38.014;-7.874;2022-12-18T16:06:21;3.28;;;1.15;;
60675;SDS011;46716;38.014;-7.874;2022-12-18T16:08:23;4.72;;;1.20;;
60675;SDS011;46716;38.014;-7.874;2022-12-18T16:10:24;5.03;;;1.40;;
60675;SDS011;46716;38.014;-7.874;2022-12-18T16:14:30;4.07;;;1.08;;
60675;SDS011;46716;38.014;-7.874;2022-12-18T16:16:37;2.58;;;1.05;;
60675;SDS011;46716;38.014;-7.874;2022-12-18T16:18:45;4.03;;;1.20;;
60675;SDS011;46716;38.014;-7.874;2022-12-18T16:20:52;8.63;;;1.30;;
60675;SDS011;46716;38.014;-7.874;2022-12-18T16:22:53;4.35;;;1.55;;
60675;SDS011;46716;38.014;-7.874;2022-12-18T16:24:56;3.60;;;1.20;;
60675;SDS011;46716;38.014;-7.874;2022-12-18T16:26:59;6.63;;;1.60;;
60675;SDS011;46716;38.014;-7.874;2022-12-18T16:31:01;5.45;;;1.58;;
60675;SDS011;46716;38.014;-7.874;2022-12-18T16:33:02;5.95;;;1.40;;
60675;SDS011;46716;38.014;-7.874;2022-12-18T16:35:03;8.05;;;1.67;;
60675;SDS011;46716;38.014;-7.874;2022-12-18T16:37:05;4.82;;;1.30;;
60675;SDS011;46716;38.014;-7.874;2022-12-18T16:39:07;3.78;;;1.20;;
60675;SDS011;46716;38.014;-7.874;2022-12-18T16:41:17;5.10;;;1.50;;
60675;SDS011;46716;38.014;-7.874;2022-12-18T16:43:31;4.40;;;1.13;;
60675;SDS011;46716;38.014;-7.874;2022-12-18T16:45:32;2.35;;;1.00;;
60675;SDS011;46716;38.014;-7.874;2022-12-18T16:47:33;8.65;;;1.55;;
60675;SDS011;46716;38.014;-7.874;2022-12-18T16:49:34;4.85;;;1.60;;
60675;SDS011;46716;38.014;-7.874;2022-12-18T16:51:35;7.07;;;1.52;;
60675;SDS011;46716;38.014;-7.874;2022-12-18T16:53:36;5.57;;;1.30;;
60675;SDS011;46716;38.014;-7.874;2022-12-18T16:55:37;3.70;;;1.20;;
60675;SDS011;46716;38.014;-7.874;2022-12-18T16:57:38;4.43;;;1.20;;
60675;SDS011;46716;38.014;-7.874;2022-12-18T16:59:39;5.63;;;1.50;;
60675;SDS011;46716;38.014;-7.874;2022-12-18T17:01:40;5.70;;;1.40;;
60675;SDS011;46716;38.014;-7.874;2022-12-18T17:03:41;6.50;;;2.35;;
60675;SDS011;46716;38.014;-7.874;2022-12-18T17:05:42;10.30;;;3.65;;
60675;SDS011;46716;38.014;-7.874;2022-12-18T17:07:43;5.60;;;2.80;;
60675;SDS011;46716;38.014;-7.874;2022-12-18T17:09:44;9.82;;;2.28;;
60675;SDS011;46716;38.014;-7.874;2022-12-18T17:11:45;6.72;;;3.13;;
60675;SDS011;46716;38.014;-7.874;2022-12-18T17:13:46;5.25;;;2.42;;
60675;SDS011;46716;38.014;-7.874;2022-12-18T17:15:47;6.65;;;2.67;;
60675;SDS011;46716;38.014;-7.874;2022-12-18T17:17:48;6.57;;;2.40;;
60675;SDS011;46716;38.014;-7.874;2022-12-18T17:19:50;7.55;;;2.90;;
60675;SDS011;46716;38.014;-7.874;2022-12-18T17:21:51;6.10;;;3.05;;
60675;SDS011;46716;38.014;-7.874;2022-12-18T17:23:53;9.10;;;2.92;;
60675;SDS011;46716;38.014;-7.874;2022-12-18T17:25:54;7.40;;;3.33;;
60675;SDS011;46716;38.014;-7.874;2022-12-18T17:27:59;18.48;;;5.15;;
60675;SDS011;46716;38.014;-7.874;2022-12-18T17:30:00;12.15;;;5.00;;
60675;SDS011;46716;38.014;-7.874;2022-12-18T17:32:02;12.77;;;4.90;;
60675;SDS011;46716;38.014;-7.874;2022-12-18T17:34:03;20.35;;;6.20;;
60675;SDS011;46716;38.014;-7.874;2022-12-18T17:36:04;17.10;;;5.20;;
60675;SDS011;46716;38.014;-7.874;2022-12-18T17:38:06;17.80;;;6.90;;
60675;SDS011;46716;38.014;-7.874;2022-12-18T17:40:08;19.10;;;6.93;;
60675;SDS011;46716;38.014;-7.874;2022-12-18T17:42:09;17.02;;;6.35;;
60675;SDS011;46716;38.014;-7.874;2022-12-18T17:44:11;14.27;;;7.28;;
60675;SDS011;46716;38.014;-7.874;2022-12-18T17:46:14;20.88;;;8.07;;
60675;SDS011;46716;38.014;-7.874;2022-12-18T17:48:15;15.25;;;8.02;;
60675;SDS011;46716;38.014;-7.874;2022-12-18T17:50:16;21.75;;;8.70;;
